sensor_id;sensor_type;location;lat;lon;timestamp;P1;durP1;ratioP1;P2;durP2;ratioP2
15482;SDS011;7843;50.330;7.312;2022-12-10T00:02:08;14.75;;;8.10;;
15482;SDS011;7843;50.330;7.312;2022-12-10T00:04:35;12.00;;;6.85;;
15482;SDS011;7843;50.330;7.312;2022-12-10T00:07:02;14.02;;;7.97;;
15482;SDS011;7843;50.330;7.312;2022-12-10T00:09:29;14.95;;;8.35;;
15482;SDS011;7843;50.330;7.312;2022-12-10T00:11:56;14.45;;;8.63;;
15482;SDS011;7843;50.330;7.312;2022-12-10T00:14:23;13.93;;;7.60;;
15482;SDS011;7843;50.330;7.312;2022-12-10T00:16:49;14.13;;;8.07;;
15482;SDS011;7843;50.330;7.312;2022-12-10T00:19:16;15.82;;;8.63;;
15482;SDS011;7843;50.330;7.312;2022-12-10T00:21:43;16.70;;;8.57;;
15482;SDS011;7843;50.330;7.312;2022-12-10T00:24:11;18.17;;;9.83;;
15482;SDS011;7843;50.330;7.312;2022-12-10T00:26:38;16.70;;;9.23;;
15482;SDS011;7843;50.330;7.312;2022-12-10T00:29:06;18.75;;;9.45;;
15482;SDS011;7843;50.330;7.312;2022-12-10T00:31:36;17.07;;;9.20;;
15482;SDS011;7843;50.330;7.312;2022-12-10T00:34:04;16.92;;;9.88;;
15482;SDS011;7843;50.330;7.312;2022-12-10T00:36:43;21.40;;;10.18;;
15482;SDS011;7843;50.330;7.312;2022-12-10T00:39:12;16.13;;;9.30;;
15482;SDS011;7843;50.330;7.312;2022-12-10T00:41:41;20.30;;;11.23;;
15482;SDS011;7843;50.330;7.312;2022-12-10T00:44:08;18.23;;;10.68;;
15482;SDS011;7843;50.330;7.312;2022-12-10T00:46:35;15.40;;;9.18;;
15482;SDS011;7843;50.330;7.312;2022-12-10T00:49:02;18.00;;;10.93;;
15482;SDS011;7843;50.330;7.312;2022-12-10T00:51:29;16.60;;;9.83;;
15482;SDS011;7843;50.330;7.312;2022-12-10T00:53:56;17.67;;;9.73;;
15482;SDS011;7843;50.330;7.312;2022-12-10T00:56:26;19.80;;;10.98;;
15482;SDS011;7843;50.330;7.312;2022-12-10T00:58:55;15.45;;;9.13;;
15482;SDS011;7843;50.330;7.312;2022-12-10T01:01:25;20.20;;;11.45;;
15482;SDS011;7843;50.330;7.312;2022-12-10T01:03:58;20.30;;;11.57;;
15482;SDS011;7843;50.330;7.312;2022-12-10T01:06:28;21.27;;;10.65;;
15482;SDS011;7843;50.330;7.312;2022-12-10T01:08:58;21.52;;;10.10;;
15482;SDS011;7843;50.330;7.312;2022-12-10T01:11:31;21.15;;;11.50;;
15482;SDS011;7843;50.330;7.312;2022-12-10T01:13:59;22.20;;;11.40;;
15482;SDS011;7843;50.330;7.312;2022-12-10T01:16:27;19.23;;;10.32;;
15482;SDS011;7843;50.330;7.312;2022-12-10T01:18:57;22.40;;;11.75;;
15482;SDS011;7843;50.330;7.312;2022-12-10T01:21:25;23.50;;;12.07;;
15482;SDS011;7843;50.330;7.312;2022-12-10T01:23:53;23.98;;;12.55;;
15482;SDS011;7843;50.330;7.312;2022-12-10T01:26:22;21.92;;;11.55;;
15482;SDS011;7843;50.330;7.312;2022-12-10T01:28:50;22.27;;;11.93;;
15482;SDS011;7843;50.330;7.312;2022-12-10T01:31:19;24.90;;;13.25;;
15482;SDS011;7843;50.330;7.312;2022-12-10T01:33:48;23.87;;;11.30;;
15482;SDS011;7843;50.330;7.312;2022-12-10T01:36:16;23.58;;;12.18;;
15482;SDS011;7843;50.330;7.312;2022-12-10T01:38:45;22.40;;;11.30;;
15482;SDS011;7843;50.330;7.312;2022-12-10T01:41:16;25.77;;;12.80;;
15482;SDS011;7843;50.330;7.312;2022-12-10T01:46:18;22.98;;;11.25;;
15482;SDS011;7843;50.330;7.312;2022-12-10T01:48:45;20.35;;;11.63;;
15482;SDS011;7843;50.330;7.312;2022-12-10T01:51:13;20.60;;;11.20;;
15482;SDS011;7843;50.330;7.312;2022-12-10T01:53:40;21.42;;;10.73;;
15482;SDS011;7843;50.330;7.312;2022-12-10T01:56:11;22.50;;;11.60;;
15482;SDS011;7843;50.330;7.312;2022-12-10T01:58:38;22.52;;;10.77;;
15482;SDS011;7843;50.330;7.312;2022-12-10T02:01:14;22.17;;;11.75;;
15482;SDS011;7843;50.330;7.312;2022-12-10T02:04:04;19.30;;;10.48;;
15482;SDS011;7843;50.330;7.312;2022-12-10T02:12:23;20.90;;;10.80;;
15482;SDS011;7843;50.330;7.312;2022-12-10T02:17:28;23.63;;;11.65;;
15482;SDS011;7843;50.330;7.312;2022-12-10T02:20:09;22.25;;;11.13;;
15482;SDS011;7843;50.330;7.312;2022-12-10T02:22:45;23.92;;;11.82;;
15482;SDS011;7843;50.330;7.312;2022-12-10T02:25:17;21.05;;;11.07;;
15482;SDS011;7843;50.330;7.312;2022-12-10T02:27:59;23.63;;;12.00;;
15482;SDS011;7843;50.330;7.312;2022-12-10T02:30:31;25.85;;;12.85;;
15482;SDS011;7843;50.330;7.312;2022-12-10T02:33:00;26.95;;;12.38;;
15482;SDS011;7843;50.330;7.312;2022-12-10T02:35:30;29.27;;;13.68;;
15482;SDS011;7843;50.330;7.312;2022-12-10T02:38:05;25.48;;;11.75;;
15482;SDS011;7843;50.330;7.312;2022-12-10T02:40:44;26.50;;;13.13;;
15482;SDS011;7843;50.330;7.312;2022-12-10T02:43:14;22.90;;;11.43;;
15482;SDS011;7843;50.330;7.312;2022-12-10T02:45:43;24.90;;;13.18;;
15482;SDS011;7843;50.330;7.312;2022-12-10T02:48:10;26.90;;;12.82;;
15482;SDS011;7843;50.330;7.312;2022-12-10T02:50:38;22.05;;;12.25;;
15482;SDS011;7843;50.330;7.312;2022-12-10T02:53:05;22.73;;;11.32;;
15482;SDS011;7843;50.330;7.312;2022-12-10T02:55:36;23.90;;;12.75;;
15482;SDS011;7843;50.330;7.312;2022-12-10T02:58:29;20.15;;;11.27;;
15482;SDS011;7843;50.330;7.312;2022-12-10T03:04:12;26.48;;;12.32;;
15482;SDS011;7843;50.330;7.312;2022-12-10T03:07:06;28.00;;;13.02;;
15482;SDS011;7843;50.330;7.312;2022-12-10T03:09:48;23.95;;;12.52;;
15482;SDS011;7843;50.330;7.312;2022-12-10T03:12:21;29.73;;;12.90;;
15482;SDS011;7843;50.330;7.312;2022-12-10T03:15:00;24.08;;;13.13;;
15482;SDS011;7843;50.330;7.312;2022-12-10T03:17:31;26.83;;;12.18;;
15482;SDS011;7843;50.330;7.312;2022-12-10T03:19:58;28.20;;;14.00;;
15482;SDS011;7843;50.330;7.312;2022-12-10T03:22:27;30.98;;;13.80;;
15482;SDS011;7843;50.330;7.312;2022-12-10T03:24:55;26.48;;;13.23;;
15482;SDS011;7843;50.330;7.312;2022-12-10T03:27:23;30.20;;;13.60;;
15482;SDS011;7843;50.330;7.312;2022-12-10T03:29:54;24.67;;;11.80;;
15482;SDS011;7843;50.330;7.312;2022-12-10T03:32:24;26.20;;;13.02;;
15482;SDS011;7843;50.330;7.312;2022-12-10T03:34:54;26.13;;;11.82;;
15482;SDS011;7843;50.330;7.312;2022-12-10T03:37:24;24.90;;;12.05;;
15482;SDS011;7843;50.330;7.312;2022-12-10T03:39:52;25.55;;;12.77;;
15482;SDS011;7843;50.330;7.312;2022-12-10T03:42:20;27.42;;;13.10;;
15482;SDS011;7843;50.330;7.312;2022-12-10T03:44:49;24.27;;;12.80;;
15482;SDS011;7843;50.330;7.312;2022-12-10T03:47:17;22.67;;;11.68;;
15482;SDS011;7843;50.330;7.312;2022-12-10T03:49:45;22.35;;;11.30;;
15482;SDS011;7843;50.330;7.312;2022-12-10T03:52:11;21.67;;;12.57;;
15482;SDS011;7843;50.330;7.312;2022-12-10T03:54:38;20.93;;;11.47;;
15482;SDS011;7843;50.330;7.312;2022-12-10T03:57:05;21.00;;;11.00;;
15482;SDS011;7843;50.330;7.312;2022-12-10T03:59:32;20.33;;;10.93;;
15482;SDS011;7843;50.330;7.312;2022-12-10T04:01:58;19.45;;;10.63;;
15482;SDS011;7843;50.330;7.312;2022-12-10T04:04:25;19.63;;;10.20;;
15482;SDS011;7843;50.330;7.312;2022-12-10T04:06:52;24.65;;;12.25;;
15482;SDS011;7843;50.330;7.312;2022-12-10T04:09:18;21.10;;;11.50;;
15482;SDS011;7843;50.330;7.312;2022-12-10T04:11:45;19.50;;;10.53;;
15482;SDS011;7843;50.330;7.312;2022-12-10T04:14:12;21.63;;;11.20;;
15482;SDS011;7843;50.330;7.312;2022-12-10T04:16:58;22.55;;;11.00;;
15482;SDS011;7843;50.330;7.312;2022-12-10T04:19:25;22.13;;;12.20;;
15482;SDS011;7843;50.330;7.312;2022-12-10T04:21:52;22.92;;;12.05;;
15482;SDS011;7843;50.330;7.312;2022-12-10T04:24:37;22.00;;;11.40;;
15482;SDS011;7843;50.330;7.312;2022-12-10T04:27:24;22.90;;;11.15;;
15482;SDS011;7843;50.330;7.312;2022-12-10T04:29:58;18.85;;;10.13;;
15482;SDS011;7843;50.330;7.312;2022-12-10T04:32:26;16.95;;;9.18;;
15482;SDS011;7843;50.330;7.312;2022-12-10T04:34:54;22.73;;;10.43;;
15482;SDS011;7843;50.330;7.312;2022-12-10T04:37:21;21.50;;;11.00;;
15482;SDS011;7843;50.330;7.312;2022-12-10T04:39:49;20.33;;;10.20;;
15482;SDS011;7843;50.330;7.312;2022-12-10T04:42:16;25.38;;;11.43;;
15482;SDS011;7843;50.330;7.312;2022-12-10T04:44:43;23.17;;;12.45;;
15482;SDS011;7843;50.330;7.312;2022-12-10T04:47:11;23.88;;;11.20;;
15482;SDS011;7843;50.330;7.312;2022-12-10T04:49:38;23.85;;;11.95;;
15482;SDS011;7843;50.330;7.312;2022-12-10T04:52:05;22.40;;;11.98;;
15482;SDS011;7843;50.330;7.312;2022-12-10T04:54:33;21.13;;;11.30;;
15482;SDS011;7843;50.330;7.312;2022-12-10T04:57:03;21.98;;;11.20;;
15482;SDS011;7843;50.330;7.312;2022-12-10T04:59:30;23.75;;;11.88;;
15482;SDS011;7843;50.330;7.312;2022-12-10T05:01:57;21.33;;;10.45;;
15482;SDS011;7843;50.330;7.312;2022-12-10T05:04:23;17.83;;;9.93;;
15482;SDS011;7843;50.330;7.312;2022-12-10T05:06:50;21.17;;;10.63;;
15482;SDS011;7843;50.330;7.312;2022-12-10T05:09:17;21.27;;;10.80;;
15482;SDS011;7843;50.330;7.312;2022-12-10T05:11:44;22.10;;;11.43;;
15482;SDS011;7843;50.330;7.312;2022-12-10T05:14:11;20.98;;;11.57;;
15482;SDS011;7843;50.330;7.312;2022-12-10T05:16:40;22.42;;;11.23;;
15482;SDS011;7843;50.330;7.312;2022-12-10T05:19:07;19.98;;;10.80;;
15482;SDS011;7843;50.330;7.312;2022-12-10T05:21:35;19.52;;;9.95;;
15482;SDS011;7843;50.330;7.312;2022-12-10T05:24:21;21.00;;;11.25;;
15482;SDS011;7843;50.330;7.312;2022-12-10T05:26:47;23.45;;;11.00;;
15482;SDS011;7843;50.330;7.312;2022-12-10T05:29:17;20.50;;;10.88;;
15482;SDS011;7843;50.330;7.312;2022-12-10T05:31:44;18.33;;;10.17;;
15482;SDS011;7843;50.330;7.312;2022-12-10T05:34:11;20.80;;;10.95;;
15482;SDS011;7843;50.330;7.312;2022-12-10T05:36:38;18.83;;;10.50;;
15482;SDS011;7843;50.330;7.312;2022-12-10T05:39:04;23.13;;;11.82;;
15482;SDS011;7843;50.330;7.312;2022-12-10T05:41:33;21.52;;;11.80;;
15482;SDS011;7843;50.330;7.312;2022-12-10T05:44:02;22.83;;;11.77;;
15482;SDS011;7843;50.330;7.312;2022-12-10T05:46:31;21.15;;;11.52;;
15482;SDS011;7843;50.330;7.312;2022-12-10T05:48:59;19.75;;;10.82;;
15482;SDS011;7843;50.330;7.312;2022-12-10T05:51:28;19.50;;;10.75;;
15482;SDS011;7843;50.330;7.312;2022-12-10T05:53:57;21.52;;;10.73;;
15482;SDS011;7843;50.330;7.312;2022-12-10T05:56:25;21.88;;;10.07;;
15482;SDS011;7843;50.330;7.312;2022-12-10T05:58:53;27.23;;;12.10;;
15482;SDS011;7843;50.330;7.312;2022-12-10T06:01:24;20.30;;;11.13;;
15482;SDS011;7843;50.330;7.312;2022-12-10T06:03:53;23.17;;;11.65;;
15482;SDS011;7843;50.330;7.312;2022-12-10T06:06:21;21.33;;;11.05;;
15482;SDS011;7843;50.330;7.312;2022-12-10T06:08:52;22.90;;;10.07;;
15482;SDS011;7843;50.330;7.312;2022-12-10T06:11:19;20.42;;;9.90;;
15482;SDS011;7843;50.330;7.312;2022-12-10T06:13:46;22.13;;;11.17;;
15482;SDS011;7843;50.330;7.312;2022-12-10T06:16:15;20.75;;;10.00;;
15482;SDS011;7843;50.330;7.312;2022-12-10T06:18:42;17.37;;;9.30;;
15482;SDS011;7843;50.330;7.312;2022-12-10T06:21:11;15.55;;;8.93;;
15482;SDS011;7843;50.330;7.312;2022-12-10T06:23:40;11.77;;;7.60;;
15482;SDS011;7843;50.330;7.312;2022-12-10T06:26:08;11.77;;;6.72;;
15482;SDS011;7843;50.330;7.312;2022-12-10T06:28:41;11.73;;;6.65;;
15482;SDS011;7843;50.330;7.312;2022-12-10T06:31:09;13.95;;;7.78;;
15482;SDS011;7843;50.330;7.312;2022-12-10T06:33:36;10.77;;;5.95;;
15482;SDS011;7843;50.330;7.312;2022-12-10T06:36:04;11.35;;;6.25;;
15482;SDS011;7843;50.330;7.312;2022-12-10T06:38:32;12.25;;;7.20;;
15482;SDS011;7843;50.330;7.312;2022-12-10T06:41:00;16.00;;;6.22;;
15482;SDS011;7843;50.330;7.312;2022-12-10T06:43:31;12.15;;;6.15;;
15482;SDS011;7843;50.330;7.312;2022-12-10T06:45:58;11.52;;;6.10;;
15482;SDS011;7843;50.330;7.312;2022-12-10T06:48:24;11.13;;;5.97;;
15482;SDS011;7843;50.330;7.312;2022-12-10T06:50:51;11.52;;;5.60;;
15482;SDS011;7843;50.330;7.312;2022-12-10T06:53:18;10.32;;;5.80;;
15482;SDS011;7843;50.330;7.312;2022-12-10T06:55:44;11.80;;;6.10;;
15482;SDS011;7843;50.330;7.312;2022-12-10T06:58:11;10.25;;;5.50;;
15482;SDS011;7843;50.330;7.312;2022-12-10T07:00:38;10.50;;;5.75;;
15482;SDS011;7843;50.330;7.312;2022-12-10T07:03:04;10.18;;;6.32;;
15482;SDS011;7843;50.330;7.312;2022-12-10T07:05:31;12.07;;;6.60;;
15482;SDS011;7843;50.330;7.312;2022-12-10T07:07:58;14.25;;;8.15;;
15482;SDS011;7843;50.330;7.312;2022-12-10T07:10:24;10.70;;;6.60;;
15482;SDS011;7843;50.330;7.312;2022-12-10T07:12:51;11.82;;;7.07;;
15482;SDS011;7843;50.330;7.312;2022-12-10T07:15:18;12.27;;;6.47;;
15482;SDS011;7843;50.330;7.312;2022-12-10T07:17:44;11.88;;;6.28;;
15482;SDS011;7843;50.330;7.312;2022-12-10T07:20:11;12.77;;;6.63;;
15482;SDS011;7843;50.330;7.312;2022-12-10T07:22:38;12.32;;;6.68;;
15482;SDS011;7843;50.330;7.312;2022-12-10T07:25:05;13.05;;;6.45;;
15482;SDS011;7843;50.330;7.312;2022-12-10T07:27:32;12.05;;;6.65;;
15482;SDS011;7843;50.330;7.312;2022-12-10T07:29:59;12.27;;;7.13;;
15482;SDS011;7843;50.330;7.312;2022-12-10T07:32:28;12.93;;;7.47;;
15482;SDS011;7843;50.330;7.312;2022-12-10T07:34:55;13.05;;;6.53;;
15482;SDS011;7843;50.330;7.312;2022-12-10T07:37:22;13.80;;;7.03;;
15482;SDS011;7843;50.330;7.312;2022-12-10T07:39:48;14.07;;;7.47;;
15482;SDS011;7843;50.330;7.312;2022-12-10T07:42:15;13.05;;;7.70;;
15482;SDS011;7843;50.330;7.312;2022-12-10T07:44:42;12.18;;;7.28;;
15482;SDS011;7843;50.330;7.312;2022-12-10T07:47:12;15.10;;;7.78;;
15482;SDS011;7843;50.330;7.312;2022-12-10T07:49:39;13.82;;;8.00;;
15482;SDS011;7843;50.330;7.312;2022-12-10T07:52:06;13.00;;;7.70;;
15482;SDS011;7843;50.330;7.312;2022-12-10T07:54:34;13.13;;;7.63;;
15482;SDS011;7843;50.330;7.312;2022-12-10T07:57:00;13.98;;;7.95;;
15482;SDS011;7843;50.330;7.312;2022-12-10T07:59:27;17.45;;;9.63;;
15482;SDS011;7843;50.330;7.312;2022-12-10T08:01:54;14.55;;;8.57;;
15482;SDS011;7843;50.330;7.312;2022-12-10T08:04:20;14.25;;;7.80;;
15482;SDS011;7843;50.330;7.312;2022-12-10T08:06:47;12.75;;;7.50;;
15482;SDS011;7843;50.330;7.312;2022-12-10T08:09:14;13.77;;;7.57;;
15482;SDS011;7843;50.330;7.312;2022-12-10T08:11:41;16.63;;;9.57;;
15482;SDS011;7843;50.330;7.312;2022-12-10T08:14:07;17.05;;;10.57;;
15482;SDS011;7843;50.330;7.312;2022-12-10T08:16:34;14.73;;;8.45;;
15482;SDS011;7843;50.330;7.312;2022-12-10T08:19:01;13.10;;;7.50;;
15482;SDS011;7843;50.330;7.312;2022-12-10T08:21:29;15.70;;;8.50;;
15482;SDS011;7843;50.330;7.312;2022-12-10T08:23:58;13.82;;;8.15;;
15482;SDS011;7843;50.330;7.312;2022-12-10T08:26:27;15.63;;;8.03;;
15482;SDS011;7843;50.330;7.312;2022-12-10T08:28:55;14.05;;;7.68;;
15482;SDS011;7843;50.330;7.312;2022-12-10T08:31:23;16.20;;;7.72;;
15482;SDS011;7843;50.330;7.312;2022-12-10T08:33:51;15.43;;;8.68;;
15482;SDS011;7843;50.330;7.312;2022-12-10T08:36:18;14.95;;;7.03;;
15482;SDS011;7843;50.330;7.312;2022-12-10T08:38:46;14.27;;;7.90;;
15482;SDS011;7843;50.330;7.312;2022-12-10T08:41:19;13.27;;;7.70;;
15482;SDS011;7843;50.330;7.312;2022-12-10T08:43:47;13.52;;;7.50;;
15482;SDS011;7843;50.330;7.312;2022-12-10T08:46:14;11.52;;;7.45;;
15482;SDS011;7843;50.330;7.312;2022-12-10T08:48:41;14.10;;;7.60;;
15482;SDS011;7843;50.330;7.312;2022-12-10T08:51:08;13.43;;;8.10;;
15482;SDS011;7843;50.330;7.312;2022-12-10T08:53:37;13.05;;;6.95;;
15482;SDS011;7843;50.330;7.312;2022-12-10T08:56:04;14.23;;;6.75;;
15482;SDS011;7843;50.330;7.312;2022-12-10T08:58:31;12.80;;;7.47;;
15482;SDS011;7843;50.330;7.312;2022-12-10T09:00:57;12.75;;;7.00;;
15482;SDS011;7843;50.330;7.312;2022-12-10T09:03:25;13.32;;;7.97;;
15482;SDS011;7843;50.330;7.312;2022-12-10T09:05:51;15.63;;;8.27;;
15482;SDS011;7843;50.330;7.312;2022-12-10T09:08:19;18.90;;;8.98;;
15482;SDS011;7843;50.330;7.312;2022-12-10T09:10:45;17.27;;;9.53;;
15482;SDS011;7843;50.330;7.312;2022-12-10T09:13:12;15.20;;;9.00;;
15482;SDS011;7843;50.330;7.312;2022-12-10T09:15:39;18.08;;;8.48;;
15482;SDS011;7843;50.330;7.312;2022-12-10T09:18:06;13.55;;;8.07;;
15482;SDS011;7843;50.330;7.312;2022-12-10T09:20:32;14.02;;;7.03;;
15482;SDS011;7843;50.330;7.312;2022-12-10T09:22:59;15.05;;;8.00;;
15482;SDS011;7843;50.330;7.312;2022-12-10T09:25:26;13.67;;;7.63;;
15482;SDS011;7843;50.330;7.312;2022-12-10T09:27:52;12.77;;;7.63;;
15482;SDS011;7843;50.330;7.312;2022-12-10T09:30:19;13.43;;;7.70;;
15482;SDS011;7843;50.330;7.312;2022-12-10T09:32:46;12.80;;;7.95;;
15482;SDS011;7843;50.330;7.312;2022-12-10T09:35:12;13.57;;;7.68;;
15482;SDS011;7843;50.330;7.312;2022-12-10T09:37:39;14.05;;;8.07;;
15482;SDS011;7843;50.330;7.312;2022-12-10T09:40:06;14.15;;;6.70;;
15482;SDS011;7843;50.330;7.312;2022-12-10T09:42:53;12.93;;;7.18;;
15482;SDS011;7843;50.330;7.312;2022-12-10T09:45:50;13.57;;;7.53;;
15482;SDS011;7843;50.330;7.312;2022-12-10T09:51:09;15.00;;;7.88;;
15482;SDS011;7843;50.330;7.312;2022-12-10T09:53:39;14.95;;;7.32;;
15482;SDS011;7843;50.330;7.312;2022-12-10T09:56:14;15.13;;;8.05;;
15482;SDS011;7843;50.330;7.312;2022-12-10T09:58:47;13.82;;;6.43;;
15482;SDS011;7843;50.330;7.312;2022-12-10T10:01:14;12.93;;;7.35;;
15482;SDS011;7843;50.330;7.312;2022-12-10T10:03:44;13.68;;;7.07;;
15482;SDS011;7843;50.330;7.312;2022-12-10T10:06:13;15.90;;;7.67;;
15482;SDS011;7843;50.330;7.312;2022-12-10T10:08:48;12.80;;;6.15;;
15482;SDS011;7843;50.330;7.312;2022-12-10T10:11:23;13.35;;;7.30;;
15482;SDS011;7843;50.330;7.312;2022-12-10T10:14:00;13.18;;;7.07;;
15482;SDS011;7843;50.330;7.312;2022-12-10T10:16:33;11.35;;;6.82;;
15482;SDS011;7843;50.330;7.312;2022-12-10T10:19:11;14.48;;;8.27;;
15482;SDS011;7843;50.330;7.312;2022-12-10T10:21:41;14.00;;;8.02;;
15482;SDS011;7843;50.330;7.312;2022-12-10T10:24:17;16.23;;;8.23;;
15482;SDS011;7843;50.330;7.312;2022-12-10T10:26:47;16.08;;;7.88;;
15482;SDS011;7843;50.330;7.312;2022-12-10T10:29:16;14.75;;;7.43;;
15482;SDS011;7843;50.330;7.312;2022-12-10T10:31:44;15.57;;;7.60;;
15482;SDS011;7843;50.330;7.312;2022-12-10T10:34:18;12.35;;;7.15;;
15482;SDS011;7843;50.330;7.312;2022-12-10T10:36:48;12.50;;;7.05;;
15482;SDS011;7843;50.330;7.312;2022-12-10T10:39:27;15.27;;;7.60;;
15482;SDS011;7843;50.330;7.312;2022-12-10T10:41:56;11.90;;;6.75;;
15482;SDS011;7843;50.330;7.312;2022-12-10T10:44:26;12.93;;;7.50;;
15482;SDS011;7843;50.330;7.312;2022-12-10T10:46:59;13.75;;;6.45;;
15482;SDS011;7843;50.330;7.312;2022-12-10T10:49:27;13.17;;;6.13;;
15482;SDS011;7843;50.330;7.312;2022-12-10T10:51:59;11.20;;;5.70;;
15482;SDS011;7843;50.330;7.312;2022-12-10T10:59:41;12.93;;;7.30;;
15482;SDS011;7843;50.330;7.312;2022-12-10T11:05:03;20.02;;;9.63;;
15482;SDS011;7843;50.330;7.312;2022-12-10T11:07:34;18.48;;;8.35;;
15482;SDS011;7843;50.330;7.312;2022-12-10T11:10:03;13.57;;;6.57;;
15482;SDS011;7843;50.330;7.312;2022-12-10T11:12:42;14.90;;;7.67;;
15482;SDS011;7843;50.330;7.312;2022-12-10T11:17:50;16.08;;;7.78;;
15482;SDS011;7843;50.330;7.312;2022-12-10T11:20:28;14.40;;;6.97;;
15482;SDS011;7843;50.330;7.312;2022-12-10T11:23:08;13.50;;;7.15;;
15482;SDS011;7843;50.330;7.312;2022-12-10T11:28:54;10.88;;;6.13;;
15482;SDS011;7843;50.330;7.312;2022-12-10T11:36:53;13.65;;;6.95;;
15482;SDS011;7843;50.330;7.312;2022-12-10T11:39:40;12.65;;;7.32;;
15482;SDS011;7843;50.330;7.312;2022-12-10T11:47:47;13.18;;;6.82;;
15482;SDS011;7843;50.330;7.312;2022-12-10T11:51:15;11.32;;;7.15;;
15482;SDS011;7843;50.330;7.312;2022-12-10T11:53:39;13.13;;;7.40;;
15482;SDS011;7843;50.330;7.312;2022-12-10T11:56:23;11.53;;;6.60;;
15482;SDS011;7843;50.330;7.312;2022-12-10T12:05:12;22.05;;;11.07;;
15482;SDS011;7843;50.330;7.312;2022-12-10T12:07:18;12.95;;;7.63;;
15482;SDS011;7843;50.330;7.312;2022-12-10T12:12:56;13.75;;;6.80;;
15482;SDS011;7843;50.330;7.312;2022-12-10T12:15:32;11.48;;;7.43;;
15482;SDS011;7843;50.330;7.312;2022-12-10T12:18:14;11.48;;;6.10;;
15482;SDS011;7843;50.330;7.312;2022-12-10T12:21:05;13.45;;;8.18;;
15482;SDS011;7843;50.330;7.312;2022-12-10T12:32:13;12.70;;;7.25;;
15482;SDS011;7843;50.330;7.312;2022-12-10T12:38:16;11.93;;;6.97;;
15482;SDS011;7843;50.330;7.312;2022-12-10T12:45:30;15.52;;;7.65;;
15482;SDS011;7843;50.330;7.312;2022-12-10T12:48:17;13.38;;;7.18;;
15482;SDS011;7843;50.330;7.312;2022-12-10T12:50:53;17.23;;;9.00;;
15482;SDS011;7843;50.330;7.312;2022-12-10T12:53:25;14.33;;;8.80;;
15482;SDS011;7843;50.330;7.312;2022-12-10T13:03:44;17.33;;;8.53;;
15482;SDS011;7843;50.330;7.312;2022-12-10T13:06:19;13.70;;;7.55;;
15482;SDS011;7843;50.330;7.312;2022-12-10T13:11:42;13.43;;;8.00;;
15482;SDS011;7843;50.330;7.312;2022-12-10T13:14:16;16.52;;;8.48;;
15482;SDS011;7843;50.330;7.312;2022-12-10T13:17:24;14.75;;;7.82;;
15482;SDS011;7843;50.330;7.312;2022-12-10T13:22:55;15.57;;;9.05;;
15482;SDS011;7843;50.330;7.312;2022-12-10T13:30:43;20.95;;;12.63;;
15482;SDS011;7843;50.330;7.312;2022-12-10T13:33:43;17.27;;;9.02;;
15482;SDS011;7843;50.330;7.312;2022-12-10T13:36:13;17.25;;;8.55;;
15482;SDS011;7843;50.330;7.312;2022-12-10T13:38:57;15.03;;;8.73;;
15482;SDS011;7843;50.330;7.312;2022-12-10T13:41:24;15.63;;;8.18;;
15482;SDS011;7843;50.330;7.312;2022-12-10T13:50:04;16.33;;;9.68;;
15482;SDS011;7843;50.330;7.312;2022-12-10T13:52:32;19.80;;;10.47;;
15482;SDS011;7843;50.330;7.312;2022-12-10T14:06:16;18.23;;;11.18;;
15482;SDS011;7843;50.330;7.312;2022-12-10T14:09:06;22.98;;;10.30;;
15482;SDS011;7843;50.330;7.312;2022-12-10T14:11:38;29.88;;;14.60;;
15482;SDS011;7843;50.330;7.312;2022-12-10T14:14:13;19.48;;;9.50;;
15482;SDS011;7843;50.330;7.312;2022-12-10T14:16:48;22.73;;;10.60;;
15482;SDS011;7843;50.330;7.312;2022-12-10T14:19:14;22.73;;;11.32;;
15482;SDS011;7843;50.330;7.312;2022-12-10T14:21:44;21.90;;;10.48;;
15482;SDS011;7843;50.330;7.312;2022-12-10T14:24:26;18.60;;;9.97;;
15482;SDS011;7843;50.330;7.312;2022-12-10T14:27:16;21.55;;;10.82;;
15482;SDS011;7843;50.330;7.312;2022-12-10T14:29:46;24.42;;;10.63;;
15482;SDS011;7843;50.330;7.312;2022-12-10T14:32:19;20.17;;;10.82;;
15482;SDS011;7843;50.330;7.312;2022-12-10T14:34:55;19.67;;;10.98;;
15482;SDS011;7843;50.330;7.312;2022-12-10T14:37:27;20.27;;;10.40;;
15482;SDS011;7843;50.330;7.312;2022-12-10T14:39:56;24.60;;;11.43;;
15482;SDS011;7843;50.330;7.312;2022-12-10T14:42:24;23.60;;;11.35;;
15482;SDS011;7843;50.330;7.312;2022-12-10T14:44:54;30.92;;;13.20;;
15482;SDS011;7843;50.330;7.312;2022-12-10T14:47:26;51.45;;;18.95;;
15482;SDS011;7843;50.330;7.312;2022-12-10T14:49:58;59.35;;;20.45;;
15482;SDS011;7843;50.330;7.312;2022-12-10T14:52:33;44.92;;;18.10;;
15482;SDS011;7843;50.330;7.312;2022-12-10T14:55:11;24.77;;;12.90;;
15482;SDS011;7843;50.330;7.312;2022-12-10T14:57:51;25.07;;;13.23;;
15482;SDS011;7843;50.330;7.312;2022-12-10T15:00:28;22.27;;;12.20;;
15482;SDS011;7843;50.330;7.312;2022-12-10T15:02:58;22.27;;;11.00;;
15482;SDS011;7843;50.330;7.312;2022-12-10T15:05:31;20.88;;;10.85;;
15482;SDS011;7843;50.330;7.312;2022-12-10T15:08:03;19.97;;;9.50;;
15482;SDS011;7843;50.330;7.312;2022-12-10T15:10:33;20.87;;;10.67;;
15482;SDS011;7843;50.330;7.312;2022-12-10T15:16:17;22.23;;;12.63;;
15482;SDS011;7843;50.330;7.312;2022-12-10T15:18:46;26.23;;;12.97;;
15482;SDS011;7843;50.330;7.312;2022-12-10T15:21:15;20.60;;;11.25;;
15482;SDS011;7843;50.330;7.312;2022-12-10T15:23:46;19.53;;;10.07;;
15482;SDS011;7843;50.330;7.312;2022-12-10T15:26:23;29.23;;;10.98;;
15482;SDS011;7843;50.330;7.312;2022-12-10T15:31:54;20.55;;;11.10;;
15482;SDS011;7843;50.330;7.312;2022-12-10T15:34:25;22.00;;;9.55;;
15482;SDS011;7843;50.330;7.312;2022-12-10T15:36:55;19.88;;;10.32;;
15482;SDS011;7843;50.330;7.312;2022-12-10T15:39:27;20.85;;;11.52;;
15482;SDS011;7843;50.330;7.312;2022-12-10T15:41:59;18.30;;;9.68;;
15482;SDS011;7843;50.330;7.312;2022-12-10T15:47:42;20.65;;;10.55;;
15482;SDS011;7843;50.330;7.312;2022-12-10T15:49:45;17.75;;;9.77;;
15482;SDS011;7843;50.330;7.312;2022-12-10T15:52:32;24.40;;;10.57;;
15482;SDS011;7843;50.330;7.312;2022-12-10T15:54:58;22.50;;;10.50;;
15482;SDS011;7843;50.330;7.312;2022-12-10T15:57:26;20.10;;;10.20;;
15482;SDS011;7843;50.330;7.312;2022-12-10T15:59:56;21.02;;;9.32;;
15482;SDS011;7843;50.330;7.312;2022-12-10T16:02:25;22.45;;;10.20;;
15482;SDS011;7843;50.330;7.312;2022-12-10T16:05:00;21.88;;;10.13;;
15482;SDS011;7843;50.330;7.312;2022-12-10T16:07:27;23.30;;;10.10;;
15482;SDS011;7843;50.330;7.312;2022-12-10T16:09:54;20.40;;;10.43;;
15482;SDS011;7843;50.330;7.312;2022-12-10T16:12:21;19.57;;;9.93;;
15482;SDS011;7843;50.330;7.312;2022-12-10T16:14:48;29.07;;;13.77;;
15482;SDS011;7843;50.330;7.312;2022-12-10T16:17:18;30.70;;;14.45;;
15482;SDS011;7843;50.330;7.312;2022-12-10T16:19:45;30.38;;;15.32;;
15482;SDS011;7843;50.330;7.312;2022-12-10T16:22:11;28.00;;;13.75;;
15482;SDS011;7843;50.330;7.312;2022-12-10T16:24:38;31.58;;;14.40;;
15482;SDS011;7843;50.330;7.312;2022-12-10T16:27:10;28.95;;;15.70;;
15482;SDS011;7843;50.330;7.312;2022-12-10T16:29:39;29.60;;;14.98;;
15482;SDS011;7843;50.330;7.312;2022-12-10T16:32:07;28.55;;;14.38;;
15482;SDS011;7843;50.330;7.312;2022-12-10T16:34:35;28.67;;;14.38;;
15482;SDS011;7843;50.330;7.312;2022-12-10T16:37:01;37.13;;;18.77;;
15482;SDS011;7843;50.330;7.312;2022-12-10T16:39:28;34.90;;;17.50;;
15482;SDS011;7843;50.330;7.312;2022-12-10T16:41:56;36.13;;;18.73;;
15482;SDS011;7843;50.330;7.312;2022-12-10T16:44:22;33.53;;;16.87;;
15482;SDS011;7843;50.330;7.312;2022-12-10T16:46:49;29.58;;;15.32;;
15482;SDS011;7843;50.330;7.312;2022-12-10T16:49:16;35.20;;;16.35;;
15482;SDS011;7843;50.330;7.312;2022-12-10T16:51:42;31.58;;;15.55;;
15482;SDS011;7843;50.330;7.312;2022-12-10T16:54:10;29.45;;;15.45;;